Time;durP1;ratioP1;P1;durP2;ratioP2;P2;SDS_P1;SDS_P2;PMS_P1;PMS_P2;Temp;Humidity;BMP_temperature;BMP_pressure;BME280_temperature;BME280_humidity;BME280_pressure;Samples;Min_cycle;Max_cycle;Signal;HPM_P1;HPM_P2
2022/03/14 00:01:34;;;;;;;4.72;2.97;;;;;;;;;;5048413;27;106479;-67
2022/03/14 00:04:01;;;;;;;4.70;2.80;;;;;;;;;;5049059;27;107068;-63
2022/03/14 00:06:28;;;;;;;4.70;2.88;;;;;;;;;;5053145;27;106420;-64
2022/03/14 00:08:55;;;;;;;4.80;2.97;;;;;;;;;;5046381;27;106130;-64
2022/03/14 00:11:23;;;;;;;4.22;2.58;;;;;;;;;;5048030;27;107395;-63
2022/03/14 00:13:50;;;;;;;5.15;2.65;;;;;;;;;;5046320;27;106706;-63
2022/03/14 00:16:24;;;;;;;4.63;2.55;;;;;;;;;;5051123;27;106204;-63
2022/03/14 00:18:53;;;;;;;4.28;2.30;;;;;;;;;;5044958;27;106163;-64
2022/03/14 00:21:23;;;;;;;5.25;2.47;;;;;;;;;;5048278;27;105798;-64
2022/03/14 00:23:54;;;;;;;3.58;2.25;;;;;;;;;;5050374;27;106185;-64
2022/03/14 00:26:22;;;;;;;3.45;1.95;;;;;;;;;;5048067;27;107939;-64
2022/03/14 00:28:49;;;;;;;3.35;2.00;;;;;;;;;;5048276;27;106687;-64
2022/03/14 00:31:16;;;;;;;3.13;1.80;;;;;;;;;;5053903;27;107087;-64
2022/03/14 00:33:42;;;;;;;3.97;2.10;;;;;;;;;;5052428;27;106194;-64
2022/03/14 00:36:08;;;;;;;4.28;1.90;;;;;;;;;;5039146;27;107116;-64
2022/03/14 00:38:36;;;;;;;2.72;1.77;;;;;;;;;;5052626;27;107557;-64
2022/03/14 00:41:03;;;;;;;2.97;1.80;;;;;;;;;;5051472;27;107039;-64
2022/03/14 00:43:30;;;;;;;3.60;1.80;;;;;;;;;;5043595;27;106363;-64
2022/03/14 00:45:56;;;;;;;3.55;2.08;;;;;;;;;;5048730;27;106373;-64
2022/03/14 00:48:23;;;;;;;3.95;1.95;;;;;;;;;;5056800;27;106145;-63
2022/03/14 00:50:50;;;;;;;4.43;2.10;;;;;;;;;;5043939;27;108159;-63
2022/03/14 00:53:16;;;;;;;4.60;2.17;;;;;;;;;;5050930;27;106287;-63
2022/03/14 00:55:43;;;;;;;3.63;2.05;;;;;;;;;;5054617;27;107009;-63
2022/03/14 00:58:12;;;;;;;3.73;2.00;;;;;;;;;;5050302;27;107705;-64
2022/03/14 01:00:39;;;;;;;4.97;2.50;;;;;;;;;;5052364;27;106276;-63
2022/03/14 01:03:05;;;;;;;4.03;2.10;;;;;;;;;;5048198;27;106695;-64
2022/03/14 01:05:32;;;;;;;2.95;1.92;;;;;;;;;;5048992;27;106232;-63
2022/03/14 01:08:02;;;;;;;2.80;1.80;;;;;;;;;;5054006;27;106167;-63
2022/03/14 01:10:29;;;;;;;2.97;1.90;;;;;;;;;;5035364;27;106294;-63
2022/03/14 01:12:57;;;;;;;3.33;1.85;;;;;;;;;;5043654;27;106574;-64
2022/03/14 01:15:23;;;;;;;3.78;2.10;;;;;;;;;;5051968;27;106611;-64
2022/03/14 01:17:49;;;;;;;3.28;1.90;;;;;;;;;;5027734;27;107428;-64
2022/03/14 01:20:16;;;;;;;2.70;1.63;;;;;;;;;;5051792;27;106072;-65
2022/03/14 01:22:43;;;;;;;3.60;1.77;;;;;;;;;;5053108;27;105921;-64
2022/03/14 01:25:10;;;;;;;3.67;2.05;;;;;;;;;;5050706;27;106223;-64
2022/03/14 01:27:37;;;;;;;3.00;1.80;;;;;;;;;;5053235;27;107224;-65
2022/03/14 01:30:03;;;;;;;3.05;1.90;;;;;;;;;;5050320;27;106715;-64
2022/03/14 01:32:30;;;;;;;3.88;2.20;;;;;;;;;;5053384;27;107720;-64
2022/03/14 01:34:56;;;;;;;5.05;2.05;;;;;;;;;;5048082;27;106771;-65
2022/03/14 01:37:22;;;;;;;4.30;2.10;;;;;;;;;;5048260;27;107399;-64
2022/03/14 01:39:49;;;;;;;3.95;2.17;;;;;;;;;;5048808;27;107315;-64
2022/03/14 01:42:16;;;;;;;4.35;2.50;;;;;;;;;;5045970;27;107417;-63
2022/03/14 01:44:43;;;;;;;3.50;1.92;;;;;;;;;;5046497;27;106826;-65
2022/03/14 01:47:09;;;;;;;4.03;2.20;;;;;;;;;;5052595;27;108325;-67
2022/03/14 01:49:36;;;;;;;4.10;2.20;;;;;;;;;;5050209;27;107789;-63
2022/03/14 01:52:05;;;;;;;3.22;2.00;;;;;;;;;;5050798;27;106639;-64
2022/03/14 01:54:32;;;;;;;3.63;2.03;;;;;;;;;;5053798;27;106541;-63
2022/03/14 01:56:59;;;;;;;3.03;1.90;;;;;;;;;;5049246;27;107428;-65
2022/03/14 01:59:28;;;;;;;4.13;2.00;;;;;;;;;;5024927;27;105975;-65
2022/03/14 02:02:10;;;;;;;3.80;2.00;;;;;;;;;;5041417;27;106464;-66
2022/03/14 02:04:36;;;;;;;3.38;2.20;;;;;;;;;;5046749;27;107388;-65
2022/03/14 02:07:04;;;;;;;4.13;2.15;;;;;;;;;;5053237;27;106492;-65
2022/03/14 02:09:30;;;;;;;3.55;1.92;;;;;;;;;;5030247;27;106667;-65
2022/03/14 02:11:57;;;;;;;3.05;1.77;;;;;;;;;;5051740;27;107416;-64
2022/03/14 02:14:24;;;;;;;3.15;1.92;;;;;;;;;;5052871;27;106941;-65
2022/03/14 02:16:50;;;;;;;3.10;1.90;;;;;;;;;;5051871;27;106294;-64
2022/03/14 02:19:17;;;;;;;4.10;2.55;;;;;;;;;;5044713;27;107279;-65
2022/03/14 02:21:44;;;;;;;3.95;2.53;;;;;;;;;;5049545;27;107265;-65
2022/03/14 02:24:11;;;;;;;3.50;2.10;;;;;;;;;;5051006;27;107404;-65
2022/03/14 02:26:41;;;;;;;4.50;2.38;;;;;;;;;;5045894;27;106509;-65
2022/03/14 02:29:07;;;;;;;4.40;2.60;;;;;;;;;;5044911;27;106053;-66
2022/03/14 02:31:37;;;;;;;4.22;2.30;;;;;;;;;;5046640;27;108333;-64
2022/03/14 02:34:03;;;;;;;;;;;;;;;;;;5050757;27;106203;-63
2022/03/14 02:36:29;;;;;;;3.60;2.20;;;;;;;;;;5053523;27;136922;-64
2022/03/14 02:38:56;;;;;;;4.15;2.50;;;;;;;;;;5050692;27;107095;-65
2022/03/14 02:41:23;;;;;;;3.55;2.40;;;;;;;;;;5044766;27;107722;-64
2022/03/14 02:43:54;;;;;;;3.28;2.10;;;;;;;;;;5042066;27;107969;-64
2022/03/14 02:46:21;;;;;;;3.67;2.28;;;;;;;;;;5041556;27;106437;-64
2022/03/14 02:48:47;;;;;;;3.60;2.30;;;;;;;;;;5052675;27;106670;-64
2022/03/14 02:51:13;;;;;;;4.35;2.50;;;;;;;;;;5049956;27;107369;-64
2022/03/14 02:53:40;;;;;;;5.93;2.78;;;;;;;;;;5050397;27;105659;-64
2022/03/14 02:56:06;;;;;;;4.70;2.38;;;;;;;;;;5039537;27;107702;-65
2022/03/14 02:58:33;;;;;;;4.28;2.42;;;;;;;;;;5051009;27;107414;-63
2022/03/14 03:01:00;;;;;;;4.65;2.60;;;;;;;;;;5048135;27;106524;-64
2022/03/14 03:03:27;;;;;;;4.70;2.70;;;;;;;;;;5044334;27;107728;-63
2022/03/14 03:05:54;;;;;;;4.72;2.75;;;;;;;;;;5047039;27;107966;-63
2022/03/14 03:08:22;;;;;;;5.53;2.80;;;;;;;;;;5051139;27;106663;-63
2022/03/14 03:10:48;;;;;;;4.78;2.75;;;;;;;;;;5046945;27;108268;-63
2022/03/14 03:13:15;;;;;;;5.93;3.03;;;;;;;;;;5047049;27;106480;-63
2022/03/14 03:15:42;;;;;;;4.57;3.20;;;;;;;;;;5038173;27;106336;-63
2022/03/14 03:18:09;;;;;;;5.07;2.90;;;;;;;;;;5048519;27;106837;-66
2022/03/14 03:20:35;;;;;;;5.15;2.80;;;;;;;;;;5053187;27;107234;-64
2022/03/14 03:23:02;;;;;;;4.97;2.65;;;;;;;;;;5050663;27;107800;-63
2022/03/14 03:25:28;;;;;;;4.65;2.75;;;;;;;;;;5051462;27;106711;-63
2022/03/14 03:27:54;;;;;;;5.03;2.72;;;;;;;;;;5048526;27;107061;-64
2022/03/14 03:30:23;;;;;;;5.20;2.88;;;;;;;;;;5046513;27;107537;-64
2022/03/14 03:32:49;;;;;;;4.85;2.85;;;;;;;;;;5050433;27;105630;-63
2022/03/14 03:35:16;;;;;;;5.47;3.03;;;;;;;;;;5046338;27;107324;-63
2022/03/14 03:37:43;;;;;;;6.05;2.67;;;;;;;;;;5049192;27;107764;-63
2022/03/14 03:40:09;;;;;;;5.78;3.30;;;;;;;;;;5028327;27;106903;-67
2022/03/14 03:42:36;;;;;;;4.10;2.75;;;;;;;;;;5051283;27;107021;-63
2022/03/14 03:45:02;;;;;;;4.18;2.70;;;;;;;;;;5043104;27;105899;-63
2022/03/14 03:47:28;;;;;;;5.43;3.15;;;;;;;;;;5051415;27;106053;-64
2022/03/14 03:49:57;;;;;;;4.50;2.90;;;;;;;;;;5042447;27;106780;-63
2022/03/14 03:52:23;;;;;;;5.50;3.42;;;;;;;;;;5045151;27;105993;-63
2022/03/14 03:54:49;;;;;;;8.70;3.05;;;;;;;;;;5051249;27;106864;-63
2022/03/14 03:57:16;;;;;;;5.35;3.15;;;;;;;;;;5048920;27;110707;-63
2022/03/14 03:59:42;;;;;;;5.15;3.28;;;;;;;;;;5046487;27;106521;-63
2022/03/14 04:02:09;;;;;;;5.20;3.53;;;;;;;;;;5044292;27;106529;-63
2022/03/14 04:04:37;;;;;;;5.28;3.40;;;;;;;;;;5048602;27;107508;-63
2022/03/14 04:07:04;;;;;;;7.15;3.67;;;;;;;;;;5046793;27;106894;-63
2022/03/14 04:09:30;;;;;;;6.68;3.95;;;;;;;;;;5053117;27;106179;-63
2022/03/14 04:11:57;;;;;;;5.80;3.78;;;;;;;;;;5052520;27;105637;-63
2022/03/14 04:14:28;;;;;;;6.18;3.63;;;;;;;;;;5045273;27;106324;-65
2022/03/14 04:16:58;;;;;;;9.63;3.78;;;;;;;;;;5042057;27;106333;-63
2022/03/14 04:19:25;;;;;;;10.25;3.90;;;;;;;;;;5045175;27;106345;-65
2022/03/14 04:21:52;;;;;;;5.82;3.97;;;;;;;;;;5043300;27;106939;-65
2022/03/14 04:24:19;;;;;;;6.35;3.90;;;;;;;;;;5057066;27;106314;-65
2022/03/14 04:26:47;;;;;;;5.43;3.90;;;;;;;;;;5050726;27;106630;-64
2022/03/14 04:29:14;;;;;;;;;;;;;;;;;;5047584;27;107807;-63
2022/03/14 04:31:41;;;;;;;6.05;4.28;;;;;;;;;;5040571;27;106548;-64
2022/03/14 04:34:08;;;;;;;5.88;4.18;;;;;;;;;;5053691;27;107534;-66
2022/03/14 04:36:34;;;;;;;13.55;4.97;;;;;;;;;;5051702;27;107351;-67
2022/03/14 04:39:04;;;;;;;;;;;;;;;;;;5045867;27;106673;-67
2022/03/14 04:41:35;;;;;;;7.40;4.72;;;;;;;;;;5047814;27;136337;-65
2022/03/14 04:44:01;;;;;;;6.80;4.85;;;;;;;;;;5053462;27;108387;-64
2022/03/14 04:46:28;;;;;;;7.43;5.28;;;;;;;;;;5055691;27;105587;-64
2022/03/14 04:48:54;;;;;;;8.57;5.55;;;;;;;;;;5044041;27;106855;-65
2022/03/14 04:51:21;;;;;;;8.48;5.63;;;;;;;;;;5039506;27;106240;-63
2022/03/14 04:53:47;;;;;;;9.55;5.88;;;;;;;;;;5052487;27;106532;-64
2022/03/14 04:56:14;;;;;;;7.80;5.43;;;;;;;;;;5046544;27;107930;-63
2022/03/14 04:58:40;;;;;;;9.60;6.90;;;;;;;;;;5043572;27;106527;-63
2022/03/14 05:01:06;;;;;;;10.32;7.25;;;;;;;;;;5054237;27;108021;-63
2022/03/14 05:03:36;;;;;;;11.32;7.43;;;;;;;;;;5040107;27;106367;-63
2022/03/14 05:06:02;;;;;;;10.77;7.00;;;;;;;;;;5047707;27;105589;-63
2022/03/14 05:08:28;;;;;;;10.27;7.28;;;;;;;;;;5047203;27;106806;-63
2022/03/14 05:10:57;;;;;;;11.68;7.68;;;;;;;;;;5039778;27;106430;-63
2022/03/14 05:13:23;;;;;;;16.75;9.00;;;;;;;;;;5051357;27;107129;-63
2022/03/14 05:15:50;;;;;;;14.32;9.25;;;;;;;;;;5026624;27;107483;-64
2022/03/14 05:18:16;;;;;;;14.55;9.65;;;;;;;;;;5043474;27;105660;-63
2022/03/14 05:20:42;;;;;;;14.18;9.32;;;;;;;;;;5035987;27;106699;-63
2022/03/14 05:23:09;;;;;;;14.98;9.32;;;;;;;;;;5039366;27;107608;-67
2022/03/14 05:25:35;;;;;;;18.63;10.05;;;;;;;;;;5049655;27;105978;-64
2022/03/14 05:28:02;;;;;;;13.82;9.10;;;;;;;;;;5028235;27;106910;-63
2022/03/14 05:30:28;;;;;;;15.02;9.40;;;;;;;;;;5044874;27;107547;-63
2022/03/14 05:32:55;;;;;;;16.15;9.55;;;;;;;;;;5048238;27;106207;-63
2022/03/14 05:35:21;;;;;;;16.33;9.95;;;;;;;;;;5049671;27;107356;-63
2022/03/14 05:37:47;;;;;;;16.15;10.13;;;;;;;;;;5053167;27;106247;-65
2022/03/14 05:40:17;;;;;;;14.55;9.40;;;;;;;;;;5042461;27;107039;-63
2022/03/14 05:42:47;;;;;;;14.85;9.60;;;;;;;;;;5033170;27;108293;-65
2022/03/14 05:45:14;;;;;;;16.30;10.35;;;;;;;;;;5045346;27;106384;-63
2022/03/14 05:47:41;;;;;;;18.55;10.60;;;;;;;;;;5041064;27;106898;-64
2022/03/14 05:50:07;;;;;;;19.38;11.65;;;;;;;;;;5047891;27;107439;-65
2022/03/14 05:52:33;;;;;;;17.27;10.88;;;;;;;;;;5051002;27;106283;-65
2022/03/14 05:55:00;;;;;;;18.25;12.10;;;;;;;;;;5052526;27;106379;-65
2022/03/14 05:57:26;;;;;;;18.65;12.23;;;;;;;;;;5045322;27;107834;-62
2022/03/14 05:59:53;;;;;;;19.60;12.52;;;;;;;;;;5045454;27;106487;-64
2022/03/14 06:02:20;;;;;;;19.42;11.63;;;;;;;;;;5039040;27;106672;-64
2022/03/14 06:04:50;;;;;;;19.77;12.13;;;;;;;;;;5046431;27;106294;-64
2022/03/14 06:07:19;;;;;;;18.02;11.18;;;;;;;;;;5032242;27;106072;-64
2022/03/14 06:09:46;;;;;;;;;;;;;;;;;;5040468;27;106487;-68
2022/03/14 06:12:13;;;;;;;;;;;;;;;;;;5027513;27;117752;-67
2022/03/14 06:14:39;;;;;;;;;;;;;;;;;;5051838;27;138151;-68
2022/03/14 06:17:05;;;;;;;;;;;;;;;;;;5043447;27;119248;-69
2022/03/14 06:19:32;;;;;;;;;;;;;;;;;;5038870;27;136759;-66
2022/03/14 06:21:58;;;;;;;;;;;;;;;;;;5034017;27;136266;-67
2022/03/14 06:24:24;;;;;;;;;;;;;;;;;;5049591;27;119391;-66
2022/03/14 06:26:50;;;;;;;;;;;;;;;;;;5048240;27;136871;-66
2022/03/14 06:29:18;;;;;;;;;;;;;;;;;;5031972;27;107646;-65
2022/03/14 06:31:44;;;;;;;;;;;;;;;;;;5052954;27;106067;-66
2022/03/14 06:34:10;;;;;;;;;;;;;;;;;;5049833;27;133929;-66
2022/03/14 06:36:37;;;;;;;;;;;;;;;;;;5042107;27;117607;-66
2022/03/14 06:39:04;;;;;;;;;;;;;;;;;;5051693;27;106193;-66
2022/03/14 06:41:37;;;;;;;;;;;;;;;;;;5047227;27;122403;-67
2022/03/14 06:44:03;;;;;;;;;;;;;;;;;;5035391;27;118738;-67
2022/03/14 06:46:29;;;;;;;;;;;;;;;;;;5021576;27;133857;-67
2022/03/14 06:48:56;;;;;;;;;;;;;;;;;;5051381;27;137021;-66
2022/03/14 06:51:24;;;;;;;;;;;;;;;;;;5042536;27;115889;-66
2022/03/14 06:53:50;;;;;;;;;;;;;;;;;;5051463;27;136256;-66
2022/03/14 06:56:17;;;;;;;;;;;;;;;;;;5041803;27;136819;-66
2022/03/14 06:58:43;;;;;;;;;;;;;;;;;;5041420;27;136433;-66
2022/03/14 07:01:12;;;;;;;;;;;;;;;;;;5049094;27;108376;-67
2022/03/14 07:03:38;;;;;;;;;;;;;;;;;;5045110;27;119455;-66
2022/03/14 07:06:07;;;;;;;;;;;;;;;;;;5050010;27;118059;-66
2022/03/14 07:08:33;;;;;;;;;;;;;;;;;;5051434;27;137576;-67
2022/03/14 07:11:00;;;;;;;;;;;;;;;;;;5030380;27;117498;-66
2022/03/14 07:13:26;;;;;;;;;;;;;;;;;;5050311;27;137411;-66
2022/03/14 07:15:52;;;;;;;;;;;;;;;;;;5042205;27;137926;-66
2022/03/14 07:18:18;;;;;;;;;;;;;;;;;;5053865;27;120233;-66
2022/03/14 07:20:45;;;;;;;;;;;;;;;;;;5046000;27;129867;-66
2022/03/14 07:23:11;;;;;;;;;;;;;;;;;;5049603;27;119225;-67
2022/03/14 07:25:37;;;;;;;;;;;;;;;;;;5047430;27;111810;-68
2022/03/14 07:28:05;;;;;;;;;;;;;;;;;;5044446;27;133958;-67
2022/03/14 07:30:31;;;;;;;;;;;;;;;;;;5045871;27;116117;-66
2022/03/14 07:32:57;;;;;;;;;;;;;;;;;;5048418;27;136136;-66
2022/03/14 07:35:23;;;;;;;;;;;;;;;;;;5048717;27;137015;-68
2022/03/14 07:37:50;;;;;;;;;;;;;;;;;;5036498;27;113475;-67
2022/03/14 07:40:17;;;;;;;;;;;;;;;;;;5050163;27;135993;-66
2022/03/14 07:42:47;;;;;;;;;;;;;;;;;;5051689;27;107789;-66
2022/03/14 07:45:13;;;;;;;;;;;;;;;;;;5040699;27;140063;-68
2022/03/14 07:47:40;;;;;;;;;;;;;;;;;;5042164;27;125978;-68
2022/03/14 07:50:06;;;;;;;;;;;;;;;;;;5048785;27;119080;-67
2022/03/14 07:52:32;;;;;;;;;;;;;;;;;;5049093;27;108025;-67
2022/03/14 07:54:59;;;;;;;;;;;;;;;;;;5050250;27;136995;-67
2022/03/14 07:57:25;;;;;;;;;;;;;;;;;;5051486;27;117356;-66
2022/03/14 07:59:52;;;;;;;;;;;;;;;;;;5047827;27;108392;-66
2022/03/14 08:02:18;;;;;;;;;;;;;;;;;;5049118;27;135760;-66
2022/03/14 08:04:45;;;;;;;;;;;;;;;;;;5049424;27;106555;-66
2022/03/14 08:07:11;;;;;;;;;;;;;;;;;;5050246;27;140070;-66
2022/03/14 08:09:37;;;;;;;;;;;;;;;;;;5043625;27;118289;-66
2022/03/14 08:12:04;;;;;;;;;;;;;;;;;;5038395;27;124262;-66
2022/03/14 08:14:31;;;;;;;;;;;;;;;;;;5045562;27;138233;-65
2022/03/14 08:16:57;;;;;;;;;;;;;;;;;;5047969;27;118828;-64
2022/03/14 08:19:24;;;;;;;;;;;;;;;;;;5034784;27;136070;-65
2022/03/14 08:21:51;;;;;;;;;;;;;;;;;;5046757;27;137090;-65
2022/03/14 08:24:17;;;;;;;;;;;;;;;;;;5049009;27;118238;-64
2022/03/14 08:26:44;;;;;;;;;;;;;;;;;;5047856;27;106697;-65
2022/03/14 08:29:10;;;;;;;;;;;;;;;;;;5040663;27;117489;-65
2022/03/14 08:31:36;;;;;;;;;;;;;;;;;;5046151;27;136615;-65
2022/03/14 08:34:03;;;;;;;;;;;;;;;;;;5053368;27;138246;-65
2022/03/14 08:36:29;;;;;;;;;;;;;;;;;;5051481;27;117601;-64
2022/03/14 08:38:56;;;;;;;;;;;;;;;;;;5053920;27;131782;-64
2022/03/14 08:41:22;;;;;;;;;;;;;;;;;;5043312;27;137508;-64
2022/03/14 08:43:48;;;;;;;;;;;;;;;;;;5054614;27;118801;-64
2022/03/14 08:46:15;;;;;;;;;;;;;;;;;;5046053;27;137661;-64
2022/03/14 08:48:41;;;;;;;;;;;;;;;;;;5034807;27;117589;-64
2022/03/14 08:51:08;;;;;;;;;;;;;;;;;;5042929;27;134154;-64
2022/03/14 08:53:34;;;;;;;;;;;;;;;;;;5046880;27;136205;-65
2022/03/14 08:56:01;;;;;;;;;;;;;;;;;;5054537;27;106117;-65
2022/03/14 08:58:29;;;;;;;;;;;;;;;;;;5042078;27;135755;-64
2022/03/14 09:00:57;;;;;;;;;;;;;;;;;;5049074;27;137010;-64
2022/03/14 09:03:23;;;;;;;;;;;;;;;;;;5048866;27;118700;-66
2022/03/14 09:05:49;;;;;;;;;;;;;;;;;;5048289;27;135100;-66
2022/03/14 09:08:17;;;;;;;;;;;;;;;;;;5049300;27;117917;-64
2022/03/14 09:10:45;;;;;;;;;;;;;;;;;;5052108;27;136984;-64
2022/03/14 09:13:11;;;;;;;;;;;;;;;;;;5046038;27;137685;-64
2022/03/14 09:15:38;;;;;;;;;;;;;;;;;;5052506;27;107340;-65
2022/03/14 09:18:04;;;;;;;;;;;;;;;;;;5050939;27;136301;-67
2022/03/14 09:20:30;;;;;;;;;;;;;;;;;;5047865;27;136315;-67
2022/03/14 09:22:56;;;;;;;;;;;;;;;;;;5050093;27;118289;-65
2022/03/14 09:25:23;;;;;;;;;;;;;;;;;;5041546;27;136198;-67
2022/03/14 09:27:50;;;;;;;;;;;;;;;;;;5034045;27;136495;-66
2022/03/14 09:30:16;;;;;;;;;;;;;;;;;;5036371;27;138680;-67
2022/03/14 09:32:42;;;;;;;;;;;;;;;;;;5040204;27;135964;-67
2022/03/14 09:35:09;;;;;;;;;;;;;;;;;;5043495;27;109506;-67
2022/03/14 09:37:35;;;;;;;;;;;;;;;;;;5034158;27;137001;-67
2022/03/14 09:40:03;;;;;;;;;;;;;;;;;;5043487;27;136504;-67
2022/03/14 09:42:30;;;;;;;;;;;;;;;;;;5049037;27;120048;-67
2022/03/14 09:45:00;;;;;;;;;;;;;;;;;;5047869;27;106687;-67
2022/03/14 09:47:26;;;;;;;;;;;;;;;;;;5047362;27;137988;-67
2022/03/14 09:49:54;;;;;;;;;;;;;;;;;;5048934;27;118832;-66
2022/03/14 09:52:20;;;;;;;;;;;;;;;;;;5041919;27;135179;-67
2022/03/14 09:54:46;;;;;;;;;;;;;;;;;;5041570;27;118671;-66
2022/03/14 09:57:14;;;;;;;;;;;;;;;;;;5043742;27;106590;-66
2022/03/14 09:59:40;;;;;;;;;;;;;;;;;;5049141;27;136831;-67
2022/03/14 10:02:07;;;;;;;;;;;;;;;;;;5038129;27;116811;-67
2022/03/14 10:04:34;;;;;;;;;;;;;;;;;;5031313;27;138323;-67
2022/03/14 10:07:00;;;;;;;;;;;;;;;;;;5042667;27;135606;-66
2022/03/14 10:09:26;;;;;;;;;;;;;;;;;;5042520;27;119462;-67
2022/03/14 10:11:52;;;;;;;;;;;;;;;;;;5041704;27;134435;-67
2022/03/14 10:14:19;;;;;;;;;;;;;;;;;;5051198;27;118056;-67
2022/03/14 10:16:45;;;;;;;;;;;;;;;;;;5048647;27;137705;-67
2022/03/14 10:19:13;;;;;;;;;;;;;;;;;;5045842;27;137681;-67
2022/03/14 10:21:39;;;;;;;;;;;;;;;;;;5042681;27;117676;-68
2022/03/14 10:24:06;;;;;;;;;;;;;;;;;;5042249;27;116480;-68
2022/03/14 10:26:33;;;;;;;;;;;;;;;;;;5027761;27;136931;-65
2022/03/14 10:28:59;;;;;;;;;;;;;;;;;;5046431;27;117268;-67
2022/03/14 10:31:32;;;;;;;;;;;;;;;;;;5041068;27;135847;-67
2022/03/14 10:34:00;;;;;;;;;;;;;;;;;;5044995;27;107309;-67
2022/03/14 10:36:26;;;;;;;;;;;;;;;;;;5045764;27;135285;-66
2022/03/14 10:38:53;;;;;;;;;;;;;;;;;;5049763;27;137173;-66
2022/03/14 10:41:19;;;;;;;;;;;;;;;;;;5041136;27;107170;-65
2022/03/14 10:44:05;;;;;;;;;;;;;;;;;;5038876;27;108355;-66
2022/03/14 10:46:31;;;;;;;;;;;;;;;;;;5048312;27;136863;-67
2022/03/14 10:48:58;;;;;;;;;;;;;;;;;;5050481;27;118368;-66
2022/03/14 10:51:24;;;;;;;;;;;;;;;;;;5047397;27;135182;-66
2022/03/14 10:53:50;;;;;;;;;;;;;;;;;;5054081;27;135873;-65
2022/03/14 10:56:17;;;;;;;;;;;;;;;;;;5040477;27;134917;-67
2022/03/14 10:58:44;;;;;;;;;;;;;;;;;;5042827;27;137500;-66
2022/03/14 11:01:10;;;;;;;;;;;;;;;;;;5049658;27;118881;-65
2022/03/14 11:03:37;;;;;;;;;;;;;;;;;;5039182;27;134946;-66
2022/03/14 11:06:03;;;;;;;;;;;;;;;;;;5050809;27;137306;-64
2022/03/14 11:08:30;;;;;;;;;;;;;;;;;;5044825;27;106063;-65
2022/03/14 11:10:57;;;;;;;;;;;;;;;;;;5044508;27;132505;-65
2022/03/14 11:13:23;;;;;;;;;;;;;;;;;;5042271;27;135782;-65
2022/03/14 11:15:49;;;;;;;;;;;;;;;;;;5035665;27;116540;-65
2022/03/14 11:18:16;;;;;;;;;;;;;;;;;;5043849;27;132474;-64
2022/03/14 11:20:42;;;;;;;;;;;;;;;;;;5037847;27;118290;-65
2022/03/14 11:23:12;;;;;;;;;;;;;;;;;;5044984;27;106869;-66
2022/03/14 11:25:38;;;;;;;;;;;;;;;;;;5039081;27;138968;-63
2022/03/14 11:28:06;;;;;;;;;;;;;;;;;;5042237;27;118548;-64
2022/03/14 11:30:32;;;;;;;;;;;;;;;;;;5043213;27;132627;-64
2022/03/14 11:32:58;;;;;;;;;;;;;;;;;;5043557;27;137051;-65
2022/03/14 11:35:24;;;;;;;;;;;;;;;;;;5051404;27;117574;-64
2022/03/14 11:37:51;;;;;;;;;;;;;;;;;;5041553;27;133734;-63
2022/03/14 11:40:17;;;;;;;;;;;;;;;;;;5034058;27;116431;-64
2022/03/14 11:42:43;;;;;;;;;;;;;;;;;;5045145;27;135366;-66
2022/03/14 11:45:11;;;;;;;;;;;;;;;;;;5049018;27;135716;-66
2022/03/14 11:47:37;;;;;;;;;;;;;;;;;;5049171;27;105989;-66
2022/03/14 11:50:04;;;;;;;;;;;;;;;;;;5047644;27;107610;-65
2022/03/14 11:52:31;;;;;;;;;;;;;;;;;;5039403;27;107533;-63
2022/03/14 11:54:58;;;;;;;;;;;;;;;;;;5048808;27;118797;-64
2022/03/14 11:57:24;;;;;;;;;;;;;;;;;;5043764;27;131079;-67
2022/03/14 11:59:50;;;;;;;;;;;;;;;;;;5051648;27;137635;-65
2022/03/14 12:02:17;;;;;;;;;;;;;;;;;;5037620;27;128085;-63
2022/03/14 12:04:43;;;;;;;;;;;;;;;;;;5049582;27;137567;-62
2022/03/14 12:07:09;;;;;;;;;;;;;;;;;;5035630;27;109967;-65
2022/03/14 12:09:37;;;;;;;;;;;;;;;;;;5044899;27;135590;-67
2022/03/14 12:12:03;;;;;;;;;;;;;;;;;;5037145;27;107344;-64
2022/03/14 12:14:29;;;;;;;;;;;;;;;;;;5042180;27;119029;-64
2022/03/14 12:16:56;;;;;;;;;;;;;;;;;;5040845;27;109704;-64
2022/03/14 12:19:23;;;;;;;;;;;;;;;;;;5030361;27;137476;-64
2022/03/14 12:21:52;;;;;;;;;;;;;;;;;;5033818;27;118623;-64
2022/03/14 12:24:19;;;;;;;;;;;;;;;;;;5034314;27;137124;-64
2022/03/14 12:26:46;;;;;;;;;;;;;;;;;;5050103;27;118787;-64
2022/03/14 12:29:13;;;;;;;;;;;;;;;;;;5046198;27;137920;-65
2022/03/14 12:31:40;;;;;;;;;;;;;;;;;;5044330;27;135132;-65
2022/03/14 12:34:06;;;;;;;;;;;;;;;;;;5045064;27;117550;-65
2022/03/14 12:36:45;;;;;;;;;;;;;;;;;;5048572;27;107156;-65
2022/03/14 12:39:20;;;;;;;;;;;;;;;;;;5030014;27;136532;-65
2022/03/14 12:41:46;;;;;;;;;;;;;;;;;;5045201;27;120505;-64
2022/03/14 12:44:13;;;;;;;;;;;;;;;;;;5049324;27;136489;-64
2022/03/14 12:46:40;;;;;;;;;;;;;;;;;;5040600;27;105614;-68
2022/03/14 12:49:06;;;;;;;;;;;;;;;;;;5039646;27;135394;-65
2022/03/14 12:51:33;;;;;;;;;;;;;;;;;;5048856;27;135064;-66
2022/03/14 12:54:00;;;;;;;;;;;;;;;;;;5046408;27;116137;-65
2022/03/14 12:56:26;;;;;;;;;;;;;;;;;;5042229;27;134907;-65
2022/03/14 12:58:53;;;;;;;;;;;;;;;;;;5030125;27;134580;-65
2022/03/14 13:01:21;;;;;;;;;;;;;;;;;;5051491;27;106034;-64
2022/03/14 13:03:47;;;;;;;;;;;;;;;;;;5040692;27;114984;-67
2022/03/14 13:06:14;;;;;;;;;;;;;;;;;;5047699;27;107187;-66
2022/03/14 13:08:40;;;;;;;;;;;;;;;;;;5051943;27;135988;-67
2022/03/14 13:11:07;;;;;;;;;;;;;;;;;;5041060;27;126835;-67
2022/03/14 13:13:34;;;;;;;;;;;;;;;;;;5050494;27;107081;-69
2022/03/14 13:16:00;;;;;;;;;;;;;;;;;;5047295;27;116775;-66
2022/03/14 13:18:27;;;;;;;;;;;;;;;;;;5047887;27;116452;-65
2022/03/14 13:20:53;;;;;;;;;;;;;;;;;;5047725;27;118535;-66
2022/03/14 13:23:20;;;;;;;;;;;;;;;;;;5042219;27;136627;-65
2022/03/14 13:25:46;;;;;;;;;;;;;;;;;;5051619;27;137780;-65
2022/03/14 13:28:13;;;;;;;;;;;;;;;;;;5051112;27;136483;-65
2022/03/14 13:30:39;;;;;;;;;;;;;;;;;;5045016;27;129228;-66
2022/03/14 13:33:06;;;;;;;;;;;;;;;;;;5049618;27;106576;-65
2022/03/14 13:35:32;;;;;;;;;;;;;;;;;;5047703;27;136996;-65
2022/03/14 13:37:58;;;;;;;;;;;;;;;;;;5045945;27;137001;-67
2022/03/14 13:40:25;;;;;;;;;;;;;;;;;;5042401;27;117108;-66
2022/03/14 13:42:52;;;;;;;;;;;;;;;;;;5048015;27;136676;-68
2022/03/14 13:45:22;;;;;;;;;;;;;;;;;;5046905;27;137180;-67
2022/03/14 13:47:48;;;;;;;;;;;;;;;;;;5052176;27;119206;-66
2022/03/14 13:50:15;;;;;;;;;;;;;;;;;;5041958;27;137156;-66
2022/03/14 13:52:41;;;;;;;;;;;;;;;;;;5050832;27;117975;-66
2022/03/14 13:55:08;;;;;;;;;;;;;;;;;;5046537;27;135219;-65
2022/03/14 13:57:34;;;;;;;;;;;;;;;;;;5038949;27;137230;-66
2022/03/14 14:00:01;;;;;;;;;;;;;;;;;;5045692;27;119596;-65
2022/03/14 14:02:27;;;;;;;;;;;;;;;;;;5047239;27;137300;-65
2022/03/14 14:04:53;;;;;;;;;;;;;;;;;;5044752;27;135854;-65
2022/03/14 14:07:20;;;;;;;;;;;;;;;;;;5047289;27;115010;-65
2022/03/14 14:09:59;;;;;;;;;;;;;;;;;;5044442;27;126884;-66
2022/03/14 14:12:26;;;;;;;;;;;;;;;;;;5047541;27;118533;-65
2022/03/14 14:14:54;;;;;;;;;;;;;;;;;;5019533;27;133383;-64
2022/03/14 14:17:20;;;;;;;;;;;;;;;;;;5044123;27;135656;-64
2022/03/14 14:19:46;;;;;;;;;;;;;;;;;;5045624;27;117577;-64
2022/03/14 14:22:13;;;;;;;;;;;;;;;;;;5039661;27;106922;-64
2022/03/14 14:24:42;;;;;;;;;;;;;;;;;;5035845;27;134283;-64
2022/03/14 14:27:08;;;;;;;;;;;;;;;;;;5046508;27;119434;-63
2022/03/14 14:29:34;;;;;;;;;;;;;;;;;;5041658;27;137804;-64
2022/03/14 14:32:01;;;;;;;;;;;;;;;;;;5042620;27;136032;-64
2022/03/14 14:34:27;;;;;;;;;;;;;;;;;;5029723;27;134423;-64
2022/03/14 14:36:56;;;;;;;;;;;;;;;;;;5049515;27;135310;-63
2022/03/14 14:39:22;;;;;;;;;;;;;;;;;;5040105;27;120332;-64
2022/03/14 14:41:49;;;;;;;;;;;;;;;;;;5048537;27;138897;-63
2022/03/14 14:44:15;;;;;;;;;;;;;;;;;;5049455;27;137072;-63
2022/03/14 14:46:41;;;;;;;;;;;;;;;;;;5041033;27;117843;-63
2022/03/14 14:49:11;;;;;;;;;;;;;;;;;;5048935;27;106950;-66
2022/03/14 14:51:40;;;;;;;;;;;;;;;;;;5049889;27;130777;-66
2022/03/14 14:54:08;;;;;;;;;;;;;;;;;;5041617;27;134316;-64
2022/03/14 14:56:35;;;;;;;;;;;;;;;;;;5048657;27;107502;-65
2022/03/14 14:59:02;;;;;;;;;;;;;;;;;;5041685;27;118958;-65
2022/03/14 15:01:28;;;;;;;;;;;;;;;;;;5035453;27;107005;-67
2022/03/14 15:03:57;;;;;;;;;;;;;;;;;;5040945;27;137259;-65
2022/03/14 15:06:23;;;;;;;;;;;;;;;;;;5038382;27;118492;-65
2022/03/14 15:08:49;;;;;;;;;;;;;;;;;;5042283;27;137031;-64
2022/03/14 15:11:16;;;;;;;;;;;;;;;;;;5041522;27;135178;-64
2022/03/14 15:13:42;;;;;;;;;;;;;;;;;;5054617;27;106104;-64
2022/03/14 15:16:08;;;;;;;;;;;;;;;;;;5046430;27;108170;-64
2022/03/14 15:18:35;;;;;;;;;;;;;;;;;;5041240;27;106234;-65
2022/03/14 15:21:02;;;;;;;;;;;;;;;;;;5045120;27;127573;-64
2022/03/14 15:23:28;;;;;;;;;;;;;;;;;;5038927;27;135818;-65
2022/03/14 15:25:54;;;;;;;;;;;;;;;;;;5030014;27;117653;-64
2022/03/14 15:28:21;;;;;;;;;;;;;;;;;;5047385;27;137641;-65
2022/03/14 15:30:48;;;;;;;;;;;;;;;;;;5045994;27;137017;-64
2022/03/14 15:33:14;;;;;;;;;;;;;;;;;;5051017;27;105867;-64
2022/03/14 15:35:41;;;;;;;;;;;;;;;;;;5049935;27;136973;-65